sensor_id;sensor_type;location;lat;lon;timestamp;pressure;altitude;pressure_sealevel;temperature;humidity
23164;BME280;31429;42.674;23.350;2023-04-15T00:00:35;94016.19;;;8.25;100.00
23164;BME280;31429;42.674;23.350;2023-04-15T00:01:36;94016.03;;;8.29;100.00
23164;BME280;31429;42.674;23.350;2023-04-15T00:02:37;94015.03;;;8.33;100.00
23164;BME280;31429;42.674;23.350;2023-04-15T00:03:38;94015.84;;;8.34;100.00
23164;BME280;31429;42.674;23.350;2023-04-15T00:04:40;94016.03;;;8.49;100.00
23164;BME280;31429;42.674;23.350;2023-04-15T00:05:40;94028.47;;;8.57;100.00
23164;BME280;31429;42.674;23.350;2023-04-15T00:06:41;94031.88;;;8.36;100.00
23164;BME280;31429;42.674;23.350;2023-04-15T00:07:42;94044.13;;;8.26;100.00
23164;BME280;31429;42.674;23.350;2023-04-15T00:08:42;94055.16;;;8.48;100.00
23164;BME280;31429;42.674;23.350;2023-04-15T00:09:43;94062.78;;;8.68;100.00
23164;BME280;31429;42.674;23.350;2023-04-15T00:10:44;94071.63;;;8.60;100.00
23164;BME280;31429;42.674;23.350;2023-04-15T00:11:45;94071.75;;;8.37;100.00
23164;BME280;31429;42.674;23.350;2023-04-15T00:12:46;94061.75;;;8.32;100.00
23164;BME280;31429;42.674;23.350;2023-04-15T00:13:47;94058.59;;;8.26;100.00
23164;BME280;31429;42.674;23.350;2023-04-15T00:14:47;94059.47;;;8.25;100.00
23164;BME280;31429;42.674;23.350;2023-04-15T00:15:48;94058.34;;;8.32;100.00
23164;BME280;31429;42.674;23.350;2023-04-15T00:16:49;94053.03;;;8.38;100.00
23164;BME280;31429;42.674;23.350;2023-04-15T00:17:55;94050.56;;;8.36;100.00
23164;BME280;31429;42.674;23.350;2023-04-15T00:18:56;94050.97;;;8.46;100.00
23164;BME280;31429;42.674;23.350;2023-04-15T00:19:58;94046.59;;;8.49;100.00
23164;BME280;31429;42.674;23.350;2023-04-15T00:20:59;94051.81;;;8.46;100.00
23164;BME280;31429;42.674;23.350;2023-04-15T00:21:59;94052.03;;;8.42;100.00
23164;BME280;31429;42.674;23.350;2023-04-15T00:23:01;94051.66;;;8.29;100.00
23164;BME280;31429;42.674;23.350;2023-04-15T00:24:03;94053.88;;;8.17;100.00
23164;BME280;31429;42.674;23.350;2023-04-15T00:25:04;94059.59;;;8.22;100.00
23164;BME280;31429;42.674;23.350;2023-04-15T00:26:05;94049.72;;;8.36;100.00
23164;BME280;31429;42.674;23.350;2023-04-15T00:27:05;94044.31;;;8.43;100.00
23164;BME280;31429;42.674;23.350;2023-04-15T00:28:06;94045.25;;;8.41;100.00
23164;BME280;31429;42.674;23.350;2023-04-15T00:29:07;94048.75;;;8.38;100.00
23164;BME280;31429;42.674;23.350;2023-04-15T00:30:08;94050.84;;;8.29;100.00
23164;BME280;31429;42.674;23.350;2023-04-15T00:31:09;94053.50;;;8.26;100.00
23164;BME280;31429;42.674;23.350;2023-04-15T00:32:10;94037.94;;;8.33;100.00
23164;BME280;31429;42.674;23.350;2023-04-15T00:33:11;94043.06;;;8.32;100.00
23164;BME280;31429;42.674;23.350;2023-04-15T00:34:12;94044.94;;;8.28;100.00
23164;BME280;31429;42.674;23.350;2023-04-15T00:35:14;94031.88;;;8.36;100.00
23164;BME280;31429;42.674;23.350;2023-04-15T00:36:15;94036.41;;;8.49;100.00
23164;BME280;31429;42.674;23.350;2023-04-15T00:37:16;94036.28;;;8.52;100.00
23164;BME280;31429;42.674;23.350;2023-04-15T00:38:17;94038.66;;;8.37;100.00
23164;BME280;31429;42.674;23.350;2023-04-15T00:39:17;94046.66;;;8.26;100.00
23164;BME280;31429;42.674;23.350;2023-04-15T00:40:20;94050.59;;;8.13;100.00
23164;BME280;31429;42.674;23.350;2023-04-15T00:41:20;94050.81;;;8.08;100.00
23164;BME280;31429;42.674;23.350;2023-04-15T00:42:22;94054.56;;;7.98;100.00
23164;BME280;31429;42.674;23.350;2023-04-15T00:43:24;94053.28;;;7.88;100.00
23164;BME280;31429;42.674;23.350;2023-04-15T00:44:25;94065.19;;;7.88;100.00
23164;BME280;31429;42.674;23.350;2023-04-15T00:45:26;94062.41;;;7.94;100.00
23164;BME280;31429;42.674;23.350;2023-04-15T00:46:30;94061.75;;;7.89;100.00
23164;BME280;31429;42.674;23.350;2023-04-15T00:47:34;94067.00;;;7.84;100.00
23164;BME280;31429;42.674;23.350;2023-04-15T00:48:36;94059.84;;;7.94;100.00
23164;BME280;31429;42.674;23.350;2023-04-15T00:49:38;94063.34;;;8.13;100.00
23164;BME280;31429;42.674;23.350;2023-04-15T00:50:40;94061.63;;;8.35;100.00
23164;BME280;31429;42.674;23.350;2023-04-15T00:51:40;94050.84;;;8.49;100.00
23164;BME280;31429;42.674;23.350;2023-04-15T00:52:41;94052.53;;;8.50;100.00
23164;BME280;31429;42.674;23.350;2023-04-15T00:53:42;94056.16;;;8.44;100.00
23164;BME280;31429;42.674;23.350;2023-04-15T00:54:43;94047.56;;;8.47;100.00
23164;BME280;31429;42.674;23.350;2023-04-15T00:55:44;94048.91;;;8.55;100.00
23164;BME280;31429;42.674;23.350;2023-04-15T00:56:44;94053.66;;;8.63;100.00
23164;BME280;31429;42.674;23.350;2023-04-15T00:57:45;94046.09;;;8.61;100.00
23164;BME280;31429;42.674;23.350;2023-04-15T00:58:46;94040.13;;;8.62;100.00
23164;BME280;31429;42.674;23.350;2023-04-15T00:59:47;94049.84;;;8.73;100.00
23164;BME280;31429;42.674;23.350;2023-04-15T01:00:48;94045.50;;;8.75;100.00
23164;BME280;31429;42.674;23.350;2023-04-15T01:01:53;94048.78;;;8.79;100.00
23164;BME280;31429;42.674;23.350;2023-04-15T01:02:54;94052.34;;;8.75;100.00
23164;BME280;31429;42.674;23.350;2023-04-15T01:03:56;94053.00;;;8.80;100.00
23164;BME280;31429;42.674;23.350;2023-04-15T01:04:59;94058.34;;;8.74;100.00
23164;BME280;31429;42.674;23.350;2023-04-15T01:06:02;94054.25;;;8.70;100.00
23164;BME280;31429;42.674;23.350;2023-04-15T01:07:03;94058.38;;;8.72;100.00
23164;BME280;31429;42.674;23.350;2023-04-15T01:08:04;94050.75;;;8.72;100.00
23164;BME280;31429;42.674;23.350;2023-04-15T01:09:04;94051.81;;;8.66;100.00
23164;BME280;31429;42.674;23.350;2023-04-15T01:10:06;94056.88;;;8.68;100.00
23164;BME280;31429;42.674;23.350;2023-04-15T01:11:07;94058.84;;;8.61;100.00
23164;BME280;31429;42.674;23.350;2023-04-15T01:12:11;94052.88;;;8.62;100.00
23164;BME280;31429;42.674;23.350;2023-04-15T01:13:11;94051.91;;;8.65;100.00
23164;BME280;31429;42.674;23.350;2023-04-15T01:14:12;94054.94;;;8.53;100.00
23164;BME280;31429;42.674;23.350;2023-04-15T01:15:13;94059.09;;;8.55;100.00
23164;BME280;31429;42.674;23.350;2023-04-15T01:16:14;94061.72;;;8.54;100.00
23164;BME280;31429;42.674;23.350;2023-04-15T01:17:16;94060.94;;;8.52;100.00
23164;BME280;31429;42.674;23.350;2023-04-15T01:18:17;94059.72;;;8.60;100.00
23164;BME280;31429;42.674;23.350;2023-04-15T01:19:18;94060.88;;;8.74;100.00
23164;BME280;31429;42.674;23.350;2023-04-15T01:20:19;94049.72;;;8.76;100.00
23164;BME280;31429;42.674;23.350;2023-04-15T01:21:23;94050.63;;;8.75;100.00
23164;BME280;31429;42.674;23.350;2023-04-15T01:22:24;94048.03;;;8.56;100.00
23164;BME280;31429;42.674;23.350;2023-04-15T01:23:25;94052.66;;;8.47;100.00
23164;BME280;31429;42.674;23.350;2023-04-15T01:24:27;94049.91;;;8.51;100.00
23164;BME280;31429;42.674;23.350;2023-04-15T01:25:32;94044.94;;;8.68;100.00
23164;BME280;31429;42.674;23.350;2023-04-15T01:26:33;94049.28;;;8.66;100.00
23164;BME280;31429;42.674;23.350;2023-04-15T01:27:34;94039.78;;;8.70;100.00
23164;BME280;31429;42.674;23.350;2023-04-15T01:28:37;94038.75;;;8.74;100.00
23164;BME280;31429;42.674;23.350;2023-04-15T01:29:37;94037.25;;;8.70;100.00
23164;BME280;31429;42.674;23.350;2023-04-15T01:30:39;94035.31;;;8.55;100.00
23164;BME280;31429;42.674;23.350;2023-04-15T01:31:39;94033.25;;;8.64;100.00
23164;BME280;31429;42.674;23.350;2023-04-15T01:32:40;94033.28;;;8.63;100.00
23164;BME280;31429;42.674;23.350;2023-04-15T01:33:41;94032.78;;;8.55;100.00
23164;BME280;31429;42.674;23.350;2023-04-15T01:34:42;94040.16;;;8.41;100.00
23164;BME280;31429;42.674;23.350;2023-04-15T01:35:43;94041.66;;;8.25;100.00
23164;BME280;31429;42.674;23.350;2023-04-15T01:36:44;94043.31;;;8.26;100.00
23164;BME280;31429;42.674;23.350;2023-04-15T01:37:45;94040.06;;;8.22;100.00
23164;BME280;31429;42.674;23.350;2023-04-15T01:38:46;94043.31;;;8.26;100.00
23164;BME280;31429;42.674;23.350;2023-04-15T01:39:47;94040.66;;;8.29;100.00
23164;BME280;31429;42.674;23.350;2023-04-15T01:40:49;94038.09;;;8.29;100.00
23164;BME280;31429;42.674;23.350;2023-04-15T01:41:50;94043.31;;;8.26;100.00
23164;BME280;31429;42.674;23.350;2023-04-15T01:42:50;94039.22;;;8.22;100.00
23164;BME280;31429;42.674;23.350;2023-04-15T01:43:51;94047.31;;;8.11;100.00
23164;BME280;31429;42.674;23.350;2023-04-15T01:44:52;94053.94;;;7.93;100.00
23164;BME280;31429;42.674;23.350;2023-04-15T01:45:53;94056.22;;;7.78;100.00
23164;BME280;31429;42.674;23.350;2023-04-15T01:46:53;94053.22;;;7.68;100.00
23164;BME280;31429;42.674;23.350;2023-04-15T01:47:54;94053.97;;;7.70;100.00
23164;BME280;31429;42.674;23.350;2023-04-15T01:48:55;94053.03;;;7.73;100.00
23164;BME280;31429;42.674;23.350;2023-04-15T01:49:55;94057.28;;;7.72;100.00
23164;BME280;31429;42.674;23.350;2023-04-15T01:50:57;94061.28;;;7.79;100.00
23164;BME280;31429;42.674;23.350;2023-04-15T01:51:57;94058.72;;;7.79;100.00
23164;BME280;31429;42.674;23.350;2023-04-15T01:52:58;94067.94;;;7.60;100.00
23164;BME280;31429;42.674;23.350;2023-04-15T01:53:59;94065.66;;;7.52;100.00
23164;BME280;31429;42.674;23.350;2023-04-15T01:55:00;94064.19;;;7.47;100.00
23164;BME280;31429;42.674;23.350;2023-04-15T01:56:03;94059.16;;;7.45;100.00
23164;BME280;31429;42.674;23.350;2023-04-15T01:57:03;94069.88;;;7.30;100.00
23164;BME280;31429;42.674;23.350;2023-04-15T01:58:04;94062.69;;;7.18;100.00
23164;BME280;31429;42.674;23.350;2023-04-15T01:59:05;94076.19;;;7.20;100.00
23164;BME280;31429;42.674;23.350;2023-04-15T02:00:06;94072.06;;;7.18;100.00
23164;BME280;31429;42.674;23.350;2023-04-15T02:01:07;94070.41;;;7.40;100.00
23164;BME280;31429;42.674;23.350;2023-04-15T02:02:09;94071.16;;;7.42;100.00
23164;BME280;31429;42.674;23.350;2023-04-15T02:03:10;94070.22;;;7.44;100.00
23164;BME280;31429;42.674;23.350;2023-04-15T02:04:11;94063.19;;;7.51;100.00
23164;BME280;31429;42.674;23.350;2023-04-15T02:05:16;94068.22;;;7.52;100.00
23164;BME280;31429;42.674;23.350;2023-04-15T02:06:17;94071.06;;;7.67;100.00
23164;BME280;31429;42.674;23.350;2023-04-15T02:07:17;94068.38;;;7.71;100.00
23164;BME280;31429;42.674;23.350;2023-04-15T02:08:18;94070.13;;;7.69;100.00
23164;BME280;31429;42.674;23.350;2023-04-15T02:09:19;94064.16;;;7.70;100.00
23164;BME280;31429;42.674;23.350;2023-04-15T02:10:20;94060.34;;;7.59;100.00
23164;BME280;31429;42.674;23.350;2023-04-15T02:11:22;94061.31;;;7.56;100.00
23164;BME280;31429;42.674;23.350;2023-04-15T02:12:23;94061.81;;;7.66;100.00
23164;BME280;31429;42.674;23.350;2023-04-15T02:13:23;94059.25;;;7.66;100.00
23164;BME280;31429;42.674;23.350;2023-04-15T02:14:24;94068.75;;;7.61;100.00
23164;BME280;31429;42.674;23.350;2023-04-15T02:15:25;94068.06;;;7.57;100.00
23164;BME280;31429;42.674;23.350;2023-04-15T02:16:25;94063.66;;;7.61;100.00
23164;BME280;31429;42.674;23.350;2023-04-15T02:17:26;94060.97;;;7.65;100.00
23164;BME280;31429;42.674;23.350;2023-04-15T02:18:27;94060.03;;;7.68;100.00
23164;BME280;31429;42.674;23.350;2023-04-15T02:19:27;94062.34;;;7.74;100.00
23164;BME280;31429;42.674;23.350;2023-04-15T02:20:28;94049.44;;;7.78;100.00
23164;BME280;31429;42.674;23.350;2023-04-15T02:21:30;94056.84;;;7.84;100.00
23164;BME280;31429;42.674;23.350;2023-04-15T02:22:30;94055.59;;;7.94;100.00
23164;BME280;31429;42.674;23.350;2023-04-15T02:23:31;94045.59;;;7.90;100.00
23164;BME280;31429;42.674;23.350;2023-04-15T02:24:32;94049.44;;;7.78;100.00
23164;BME280;31429;42.674;23.350;2023-04-15T02:25:32;94053.63;;;7.58;100.00
23164;BME280;31429;42.674;23.350;2023-04-15T02:26:34;94038.31;;;7.36;100.00
23164;BME280;31429;42.674;23.350;2023-04-15T02:27:35;94040.09;;;7.34;100.00
23164;BME280;31429;42.674;23.350;2023-04-15T02:28:36;94047.34;;;7.44;100.00
23164;BME280;31429;42.674;23.350;2023-04-15T02:29:36;94050.31;;;7.56;100.00
23164;BME280;31429;42.674;23.350;2023-04-15T02:30:37;94051.97;;;7.57;100.00
23164;BME280;31429;42.674;23.350;2023-04-15T02:31:40;94056.03;;;7.61;100.00
23164;BME280;31429;42.674;23.350;2023-04-15T02:32:41;94053.78;;;7.53;100.00
23164;BME280;31429;42.674;23.350;2023-04-15T02:33:44;94053.88;;;7.28;100.00
23164;BME280;31429;42.674;23.350;2023-04-15T02:34:45;94049.88;;;7.21;100.00
23164;BME280;31429;42.674;23.350;2023-04-15T02:35:45;94045.75;;;7.19;100.00
23164;BME280;31429;42.674;23.350;2023-04-15T02:36:46;94052.25;;;7.03;100.00
23164;BME280;31429;42.674;23.350;2023-04-15T02:37:48;94048.72;;;7.30;100.00
23164;BME280;31429;42.674;23.350;2023-04-15T02:38:49;94052.81;;;7.57;100.00
23164;BME280;31429;42.674;23.350;2023-04-15T02:39:50;94051.31;;;7.51;100.00
23164;BME280;31429;42.674;23.350;2023-04-15T02:40:50;94049.19;;;7.18;100.00
23164;BME280;31429;42.674;23.350;2023-04-15T02:41:52;94054.34;;;6.91;100.00
23164;BME280;31429;42.674;23.350;2023-04-15T02:42:53;94046.13;;;6.85;100.00
23164;BME280;31429;42.674;23.350;2023-04-15T02:43:54;94051.25;;;6.83;100.00
23164;BME280;31429;42.674;23.350;2023-04-15T02:44:55;94042.75;;;6.84;100.00
23164;BME280;31429;42.674;23.350;2023-04-15T02:45:56;94041.56;;;6.94;100.00
23164;BME280;31429;42.674;23.350;2023-04-15T02:46:56;94055.50;;;6.83;100.00
23164;BME280;31429;42.674;23.350;2023-04-15T02:47:57;94059.28;;;6.71;100.00
23164;BME280;31429;42.674;23.350;2023-04-15T02:48:58;94058.88;;;6.59;100.00
23164;BME280;31429;42.674;23.350;2023-04-15T02:49:59;94056.44;;;6.56;100.00
23164;BME280;31429;42.674;23.350;2023-04-15T02:51:11;94052.50;;;6.47;100.00
23164;BME280;31429;42.674;23.350;2023-04-15T02:52:12;94057.38;;;6.53;100.00
23164;BME280;31429;42.674;23.350;2023-04-15T02:53:13;94070.69;;;6.35;100.00
23164;BME280;31429;42.674;23.350;2023-04-15T02:54:14;94065.50;;;6.38;100.00
23164;BME280;31429;42.674;23.350;2023-04-15T02:55:15;94062.50;;;6.27;100.00
23164;BME280;31429;42.674;23.350;2023-04-15T02:56:17;94063.53;;;6.21;100.00
23164;BME280;31429;42.674;23.350;2023-04-15T02:57:20;94070.03;;;6.28;100.00
23164;BME280;31429;42.674;23.350;2023-04-15T02:58:21;94069.00;;;6.60;100.00
23164;BME280;31429;42.674;23.350;2023-04-15T02:59:21;94067.88;;;6.67;100.00
23164;BME280;31429;42.674;23.350;2023-04-15T03:00:22;94073.59;;;6.49;100.00
23164;BME280;31429;42.674;23.350;2023-04-15T03:01:24;94077.41;;;6.36;100.00
23164;BME280;31429;42.674;23.350;2023-04-15T03:02:25;94074.34;;;6.26;100.00
23164;BME280;31429;42.674;23.350;2023-04-15T03:03:26;94064.94;;;6.30;100.00
23164;BME280;31429;42.674;23.350;2023-04-15T03:04:27;94077.81;;;6.24;100.00
23164;BME280;31429;42.674;23.350;2023-04-15T03:05:30;94068.63;;;6.20;100.00
23164;BME280;31429;42.674;23.350;2023-04-15T03:06:31;94072.78;;;6.22;100.00
23164;BME280;31429;42.674;23.350;2023-04-15T03:07:31;94068.78;;;6.15;100.00
23164;BME280;31429;42.674;23.350;2023-04-15T03:08:32;94067.19;;;6.13;100.00
23164;BME280;31429;42.674;23.350;2023-04-15T03:09:33;94066.66;;;6.02;100.00
23164;BME280;31429;42.674;23.350;2023-04-15T03:10:34;94070.31;;;5.93;100.00
23164;BME280;31429;42.674;23.350;2023-04-15T03:11:34;94067.69;;;5.96;100.00
23164;BME280;31429;42.674;23.350;2023-04-15T03:12:41;94072.84;;;5.93;100.00
23164;BME280;31429;42.674;23.350;2023-04-15T03:13:41;94078.91;;;5.89;100.00
23164;BME280;31429;42.674;23.350;2023-04-15T03:15:01;94073.31;;;5.78;100.00
23164;BME280;31429;42.674;23.350;2023-04-15T03:16:01;94079.53;;;5.68;100.00
23164;BME280;31429;42.674;23.350;2023-04-15T03:17:02;94090.41;;;5.71;100.00
23164;BME280;31429;42.674;23.350;2023-04-15T03:18:02;94088.16;;;5.62;100.00
23164;BME280;31429;42.674;23.350;2023-04-15T03:19:03;94095.03;;;5.59;100.00
23164;BME280;31429;42.674;23.350;2023-04-15T03:20:05;94096.81;;;5.55;100.00
23164;BME280;31429;42.674;23.350;2023-04-15T03:21:06;94093.59;;;5.50;100.00
23164;BME280;31429;42.674;23.350;2023-04-15T03:22:07;94097.50;;;5.60;100.00
23164;BME280;31429;42.674;23.350;2023-04-15T03:23:08;94090.31;;;5.74;100.00
23164;BME280;31429;42.674;23.350;2023-04-15T03:24:08;94089.53;;;5.72;100.00
23164;BME280;31429;42.674;23.350;2023-04-15T03:25:09;94083.53;;;5.75;100.00
23164;BME280;31429;42.674;23.350;2023-04-15T03:26:10;94085.69;;;5.89;100.00
23164;BME280;31429;42.674;23.350;2023-04-15T03:27:23;94089.75;;;5.94;100.00
23164;BME280;31429;42.674;23.350;2023-04-15T03:28:25;94092.00;;;5.75;100.00
23164;BME280;31429;42.674;23.350;2023-04-15T03:29:25;94094.22;;;5.57;100.00
23164;BME280;31429;42.674;23.350;2023-04-15T03:30:26;94100.31;;;5.51;100.00
23164;BME280;31429;42.674;23.350;2023-04-15T03:31:26;94096.72;;;5.58;100.00
23164;BME280;31429;42.674;23.350;2023-04-15T03:32:27;94093.78;;;5.72;100.00
23164;BME280;31429;42.674;23.350;2023-04-15T03:33:28;94097.41;;;5.63;100.00
23164;BME280;31429;42.674;23.350;2023-04-15T03:34:28;94110.88;;;5.65;100.00
23164;BME280;31429;42.674;23.350;2023-04-15T03:35:29;94110.44;;;6.08;100.00
23164;BME280;31429;42.674;23.350;2023-04-15T03:36:30;94112.22;;;6.32;100.00
23164;BME280;31429;42.674;23.350;2023-04-15T03:37:34;94110.13;;;5.91;100.00
23164;BME280;31429;42.674;23.350;2023-04-15T03:38:35;94105.47;;;5.48;100.00
23164;BME280;31429;42.674;23.350;2023-04-15T03:39:35;94098.94;;;5.40;100.00
23164;BME280;31429;42.674;23.350;2023-04-15T03:40:36;94109.00;;;5.43;100.00
23164;BME280;31429;42.674;23.350;2023-04-15T03:41:36;94111.72;;;5.66;100.00
23164;BME280;31429;42.674;23.350;2023-04-15T03:42:37;94118.06;;;6.08;100.00
23164;BME280;31429;42.674;23.350;2023-04-15T03:43:39;94117.00;;;5.88;100.00
23164;BME280;31429;42.674;23.350;2023-04-15T03:44:40;94113.56;;;5.61;100.00
23164;BME280;31429;42.674;23.350;2023-04-15T03:45:40;94108.44;;;5.62;100.00
23164;BME280;31429;42.674;23.350;2023-04-15T03:46:41;94110.28;;;5.57;100.00
23164;BME280;31429;42.674;23.350;2023-04-15T03:47:42;94121.81;;;5.38;100.00
23164;BME280;31429;42.674;23.350;2023-04-15T03:48:42;94127.84;;;5.34;100.00
23164;BME280;31429;42.674;23.350;2023-04-15T03:49:43;94130.28;;;5.08;100.00
23164;BME280;31429;42.674;23.350;2023-04-15T03:50:44;94133.91;;;4.98;100.00
23164;BME280;31429;42.674;23.350;2023-04-15T03:51:45;94134.44;;;5.09;100.00
23164;BME280;31429;42.674;23.350;2023-04-15T03:53:04;94132.97;;;5.02;100.00
23164;BME280;31429;42.674;23.350;2023-04-15T03:54:05;94137.69;;;5.14;100.00
23164;BME280;31429;42.674;23.350;2023-04-15T03:55:06;94147.03;;;5.12;100.00
23164;BME280;31429;42.674;23.350;2023-04-15T03:56:07;94134.94;;;4.91;100.00
23164;BME280;31429;42.674;23.350;2023-04-15T03:57:08;94126.78;;;5.12;100.00
23164;BME280;31429;42.674;23.350;2023-04-15T03:58:09;94129.59;;;5.32;100.00
23164;BME280;31429;42.674;23.350;2023-04-15T03:59:13;94133.25;;;5.22;100.00
23164;BME280;31429;42.674;23.350;2023-04-15T04:00:14;94141.47;;;5.30;100.00
23164;BME280;31429;42.674;23.350;2023-04-15T04:01:15;94142.09;;;5.07;100.00
23164;BME280;31429;42.674;23.350;2023-04-15T04:02:15;94132.00;;;5.06;100.00
23164;BME280;31429;42.674;23.350;2023-04-15T04:03:16;94118.16;;;5.17;100.00
23164;BME280;31429;42.674;23.350;2023-04-15T04:04:17;94117.16;;;5.23;100.00
23164;BME280;31429;42.674;23.350;2023-04-15T04:05:18;94127.44;;;5.18;100.00
23164;BME280;31429;42.674;23.350;2023-04-15T04:06:18;94128.69;;;5.04;100.00
23164;BME280;31429;42.674;23.350;2023-04-15T04:07:19;94129.00;;;5.22;100.00
23164;BME280;31429;42.674;23.350;2023-04-15T04:08:20;94135.22;;;5.11;100.00
23164;BME280;31429;42.674;23.350;2023-04-15T04:09:21;94139.44;;;5.12;100.00
23164;BME280;31429;42.674;23.350;2023-04-15T04:10:22;94130.66;;;5.23;100.00
23164;BME280;31429;42.674;23.350;2023-04-15T04:11:22;94138.88;;;5.32;100.00
23164;BME280;31429;42.674;23.350;2023-04-15T04:12:23;94142.72;;;5.46;100.00
23164;BME280;31429;42.674;23.350;2023-04-15T04:13:23;94135.44;;;5.63;100.00
23164;BME280;31429;42.674;23.350;2023-04-15T04:14:26;94138.66;;;5.70;100.00
23164;BME280;31429;42.674;23.350;2023-04-15T04:15:29;94135.59;;;5.88;100.00
23164;BME280;31429;42.674;23.350;2023-04-15T04:16:29;94142.41;;;5.86;100.00
23164;BME280;31429;42.674;23.350;2023-04-15T04:17:30;94137.66;;;5.74;100.00
23164;BME280;31429;42.674;23.350;2023-04-15T04:18:31;94141.56;;;5.56;100.00
23164;BME280;31429;42.674;23.350;2023-04-15T04:19:31;94135.78;;;5.51;100.00
23164;BME280;31429;42.674;23.350;2023-04-15T04:20:32;94141.78;;;5.49;100.00
23164;BME280;31429;42.674;23.350;2023-04-15T04:21:33;94137.81;;;5.40;100.00
23164;BME280;31429;42.674;23.350;2023-04-15T04:22:36;94140.22;;;5.45;100.00
23164;BME280;31429;42.674;23.350;2023-04-15T04:23:37;94150.25;;;5.48;100.00
23164;BME280;31429;42.674;23.350;2023-04-15T04:24:38;94148.22;;;5.60;100.00
23164;BME280;31429;42.674;23.350;2023-04-15T04:25:38;94135.50;;;5.91;100.00
23164;BME280;31429;42.674;23.350;2023-04-15T04:26:39;94139.44;;;6.01;100.00
23164;BME280;31429;42.674;23.350;2023-04-15T04:27:39;94140.75;;;5.85;100.00
23164;BME280;31429;42.674;23.350;2023-04-15T04:28:40;94139.81;;;5.88;100.00
23164;BME280;31429;42.674;23.350;2023-04-15T04:29:42;94140.19;;;5.75;100.00
23164;BME280;31429;42.674;23.350;2023-04-15T04:30:43;94140.88;;;5.80;100.00
23164;BME280;31429;42.674;23.350;2023-04-15T04:31:44;94135.50;;;5.91;100.00
23164;BME280;31429;42.674;23.350;2023-04-15T04:32:46;94144.44;;;6.03;100.00
23164;BME280;31429;42.674;23.350;2023-04-15T04:33:46;94135.16;;;6.02;100.00
23164;BME280;31429;42.674;23.350;2023-04-15T04:34:47;94140.78;;;6.13;100.00
23164;BME280;31429;42.674;23.350;2023-04-15T04:35:48;94140.63;;;6.17;100.00
23164;BME280;31429;42.674;23.350;2023-04-15T04:36:48;94140.19;;;6.31;100.00
23164;BME280;31429;42.674;23.350;2023-04-15T04:37:49;94135.97;;;6.56;100.00
23164;BME280;31429;42.674;23.350;2023-04-15T04:38:50;94144.44;;;6.57;100.00
23164;BME280;31429;42.674;23.350;2023-04-15T04:39:50;94145.53;;;6.50;100.00
23164;BME280;31429;42.674;23.350;2023-04-15T04:40:51;94151.06;;;6.34;100.00
23164;BME280;31429;42.674;23.350;2023-04-15T04:41:52;94135.88;;;6.59;100.00
23164;BME280;31429;42.674;23.350;2023-04-15T04:42:52;94138.19;;;6.91;100.00
23164;BME280;31429;42.674;23.350;2023-04-15T04:43:53;94130.22;;;7.02;100.00
23164;BME280;31429;42.674;23.350;2023-04-15T04:44:55;94134.97;;;7.11;100.00
23164;BME280;31429;42.674;23.350;2023-04-15T04:45:56;94130.25;;;7.25;100.00
23164;BME280;31429;42.674;23.350;2023-04-15T04:46:57;94136.19;;;7.24;100.00
23164;BME280;31429;42.674;23.350;2023-04-15T04:47:58;94149.09;;;7.20;100.00
23164;BME280;31429;42.674;23.350;2023-04-15T04:48:58;94139.69;;;7.22;100.00
23164;BME280;31429;42.674;23.350;2023-04-15T04:49:59;94149.00;;;7.21;100.00
23164;BME280;31429;42.674;23.350;2023-04-15T04:50:59;94149.41;;;7.11;100.00
23164;BME280;31429;42.674;23.350;2023-04-15T04:52:00;94150.50;;;7.04;100.00
23164;BME280;31429;42.674;23.350;2023-04-15T04:53:01;94159.88;;;7.02;100.00
23164;BME280;31429;42.674;23.350;2023-04-15T04:54:03;94164.75;;;7.08;100.00
23164;BME280;31429;42.674;23.350;2023-04-15T04:55:04;94158.81;;;7.07;100.00
23164;BME280;31429;42.674;23.350;2023-04-15T04:56:05;94157.47;;;7.22;100.00
23164;BME280;31429;42.674;23.350;2023-04-15T04:57:06;94157.78;;;7.13;100.00
23164;BME280;31429;42.674;23.350;2023-04-15T04:58:07;94153.97;;;7.26;100.00
23164;BME280;31429;42.674;23.350;2023-04-15T04:59:08;94156.53;;;7.24;100.00
23164;BME280;31429;42.674;23.350;2023-04-15T05:00:11;94161.94;;;7.40;100.00
23164;BME280;31429;42.674;23.350;2023-04-15T05:01:11;94163.53;;;7.42;100.00
23164;BME280;31429;42.674;23.350;2023-04-15T05:02:12;94166.13;;;7.41;100.00
23164;BME280;31429;42.674;23.350;2023-04-15T05:03:13;94161.75;;;7.44;100.00
23164;BME280;31429;42.674;23.350;2023-04-15T05:04:14;94160.16;;;7.65;100.00
23164;BME280;31429;42.674;23.350;2023-04-15T05:05:15;94167.19;;;7.59;100.00
23164;BME280;31429;42.674;23.350;2023-04-15T05:06:15;94181.50;;;7.61;100.00
23164;BME280;31429;42.674;23.350;2023-04-15T05:07:16;94181.41;;;7.64;100.00
23164;BME280;31429;42.674;23.350;2023-04-15T05:08:17;94179.50;;;7.69;100.00
23164;BME280;31429;42.674;23.350;2023-04-15T05:09:17;94178.72;;;7.69;100.00
23164;BME280;31429;42.674;23.350;2023-04-15T05:10:18;94184.66;;;7.68;100.00
23164;BME280;31429;42.674;23.350;2023-04-15T05:11:19;94181.25;;;7.69;100.00
23164;BME280;31429;42.674;23.350;2023-04-15T05:12:20;94185.31;;;7.96;100.00
23164;BME280;31429;42.674;23.350;2023-04-15T05:13:20;94187.38;;;7.86;100.00
23164;BME280;31429;42.674;23.350;2023-04-15T05:14:21;94184.94;;;7.83;100.00
23164;BME280;31429;42.674;23.350;2023-04-15T05:15:23;94190.69;;;8.12;100.00
23164;BME280;31429;42.674;23.350;2023-04-15T05:16:24;94191.56;;;8.10;100.00
23164;BME280;31429;42.674;23.350;2023-04-15T05:17:25;94201.75;;;8.34;100.00
23164;BME280;31429;42.674;23.350;2023-04-15T05:18:26;94196.72;;;8.54;100.00
23164;BME280;31429;42.674;23.350;2023-04-15T05:19:26;94203.16;;;8.41;100.00
23164;BME280;31429;42.674;23.350;2023-04-15T05:20:27;94200.28;;;8.28;100.00